Time;durP1;ratioP1;P1;durP2;ratioP2;P2;SDS_P1;SDS_P2;PMS_P1;PMS_P2;Temp;Humidity;BMP_temperature;BMP_pressure;BME280_temperature;BME280_humidity;BME280_pressure;Samples;Min_cycle;Max_cycle;Signal;HPM_P1;HPM_P2
2022/11/17 00:01:55;;;;;;;3.72;2.40;;;;;;;0.80;84.18;99304.23;1680645;83;20942;-76
2022/11/17 00:04:24;;;;;;;5.30;1.93;;;;;;;0.77;84.18;99292.72;1673205;84;21701;-76
2022/11/17 00:06:50;;;;;;;2.75;1.85;;;;;;;0.74;84.02;99291.03;1670682;83;20926;-76
2022/11/17 00:09:17;;;;;;;3.07;2.17;;;;;;;0.71;84.10;99285.94;1673129;83;21015;-76
2022/11/17 00:14:35;;;;;;;5.10;1.98;;;;;;;0.68;84.04;99277.44;1676782;83;20962;-76
2022/11/17 00:17:06;;;;;;;2.60;2.05;;;;;;;0.62;84.16;99284.35;1672337;83;20950;-76
2022/11/17 00:22:18;;;;;;;3.50;1.82;;;;;;;0.63;84.07;99284.75;1678355;83;21139;-74
2022/11/17 00:24:45;;;;;;;4.90;2.47;;;;;;;0.60;84.00;99277.53;1674555;83;21061;-74
2022/11/17 00:27:12;;;;;;;2.95;2.15;;;;;;;0.56;84.00;99274.17;1694551;83;20960;-74
2022/11/17 00:29:41;;;;;;;5.85;2.50;;;;;;;0.55;84.02;99280.16;1694211;82;20962;-74
2022/11/17 00:34:58;;;;;;;5.65;2.12;;;;;;;0.52;83.93;99282.77;1677670;84;22028;-74
2022/11/17 00:37:26;;;;;;;3.23;2.23;;;;;;;0.52;83.99;99282.77;1669857;83;21538;-74
2022/11/17 00:39:53;;;;;;;2.10;1.80;;;;;;;0.50;83.94;99279.80;1679822;83;20914;-74
2022/11/17 00:42:19;;;;;;;6.70;2.77;;;;;;;0.50;83.99;99279.80;1681669;83;20938;-74
2022/11/17 00:44:47;;;;;;;7.00;2.60;;;;;;;0.50;84.00;99284.50;1676516;83;20894;-75
2022/11/17 00:47:13;;;;;;;4.78;1.77;;;;;;;0.50;83.96;99281.09;1690084;83;21569;-74
2022/11/17 00:49:40;;;;;;;5.10;3.00;;;;;;;0.51;84.02;99286.22;1683913;83;20915;-74
2022/11/17 00:52:08;;;;;;;6.93;2.03;;;;;;;0.50;83.95;99282.38;1687742;83;20973;-74
2022/11/17 00:54:35;;;;;;;6.25;2.40;;;;;;;0.50;83.96;99287.07;1690821;82;20977;-74
2022/11/17 00:57:02;;;;;;;2.72;2.10;;;;;;;0.50;83.97;99285.78;1711770;82;20950;-74
2022/11/17 00:59:29;;;;;;;4.12;2.25;;;;;;;0.50;83.94;99286.23;1710091;82;21140;-74
2022/11/17 01:01:55;;;;;;;5.67;2.80;;;;;;;0.48;84.01;99281.12;1686084;83;20867;-74
2022/11/17 01:04:22;;;;;;;3.95;2.98;;;;;;;0.48;84.02;99283.70;1708328;82;21498;-74
2022/11/17 01:06:49;;;;;;;3.67;2.37;;;;;;;0.49;84.09;99287.11;1705669;81;21449;-74
2022/11/17 01:09:20;;;;;;;2.52;2.00;;;;;;;0.50;84.02;99278.52;1704427;82;20910;-74
2022/11/17 01:11:49;;;;;;;4.28;1.72;;;;;;;0.50;84.01;99274.23;1701774;82;21471;-74
2022/11/17 01:14:21;;;;;;;3.80;2.00;;;;;;;0.50;83.94;99281.94;1705704;82;21459;-73
2022/11/17 01:16:47;;;;;;;2.67;2.25;;;;;;;0.53;83.97;99282.33;1681788;83;21677;-74
2022/11/17 01:19:16;;;;;;;2.43;1.77;;;;;;;0.52;83.87;99282.77;1685094;83;20977;-74
2022/11/17 01:21:43;;;;;;;1.77;1.62;;;;;;;0.50;83.86;99279.36;1649329;85;21001;-74
2022/11/17 01:24:11;;;;;;;2.83;2.08;;;;;;;0.50;83.95;99276.80;1689881;83;21103;-74
2022/11/17 01:26:39;;;;;;;3.75;1.90;;;;;;;0.50;83.95;99275.52;1690412;83;21027;-74
2022/11/17 01:29:07;;;;;;;2.70;1.90;;;;;;;0.51;83.99;99265.67;1705529;82;20934;-74
2022/11/17 01:31:38;;;;;;;4.58;2.05;;;;;;;0.53;83.98;99261.34;1707079;82;20969;-74
2022/11/17 01:34:05;;;;;;;2.60;1.95;;;;;;;0.54;83.94;99259.20;1689277;83;20942;-74
2022/11/17 01:39:23;;;;;;;3.55;2.37;;;;;;;0.56;83.87;99249.77;1680725;83;20953;-74
2022/11/17 01:41:50;;;;;;;2.52;2.10;;;;;;;0.55;83.81;99245.48;1687310;83;21448;-74
2022/11/17 01:44:47;;;;;;;4.78;2.20;;;;;;;0.51;83.81;99250.26;1675118;83;20945;-74
2022/11/17 01:47:21;;;;;;;3.65;2.10;;;;;;;0.51;83.91;99245.13;1704969;82;20994;-74
2022/11/17 01:49:51;;;;;;;3.52;2.33;;;;;;;0.54;83.92;99239.94;1699332;82;21041;-74
2022/11/17 01:52:18;;;;;;;3.15;2.10;;;;;;;0.55;83.88;99251.90;1703866;82;20981;-74
2022/11/17 01:54:47;;;;;;;3.67;2.43;;;;;;;0.56;83.85;99245.03;1685359;82;20954;-74
2022/11/17 01:57:22;;;;;;;2.62;2.15;;;;;;;0.55;83.88;99246.76;1661989;83;20963;-74
2022/11/17 01:59:54;;;;;;;3.15;2.30;;;;;;;0.56;83.93;99245.91;1659055;83;20959;-74
2022/11/17 02:02:21;;;;;;;3.42;2.80;;;;;;;0.57;83.87;99238.60;1659242;83;21196;-74
2022/11/17 02:05:14;;;;;;;4.78;2.80;;;;;;;0.56;83.87;99239.89;1672141;83;20934;-74
2022/11/17 02:07:44;;;;;;;6.22;3.02;;;;;;;0.55;83.96;99239.05;1609762;87;21502;-74
2022/11/17 02:10:11;;;;;;;5.50;2.47;;;;;;;0.53;83.92;99230.52;1605156;87;20929;-74
2022/11/17 02:12:38;;;;;;;2.85;2.30;;;;;;;0.54;83.89;99228.81;1604939;87;20989;-74
2022/11/17 02:15:05;;;;;;;3.20;2.47;;;;;;;0.54;83.87;99224.52;1606561;87;21068;-74
2022/11/17 02:17:39;;;;;;;3.42;2.20;;;;;;;0.54;83.84;99232.23;1586669;89;21140;-74
2022/11/17 02:20:13;;;;;;;3.98;2.35;;;;;;;0.54;83.87;99228.38;1606480;87;21529;-74
2022/11/17 02:23:06;;;;;;;3.22;2.20;;;;;;;0.55;83.91;99223.64;1608259;87;21025;-73
2022/11/17 02:25:52;;;;;;;4.33;2.58;;;;;;;0.55;83.79;99227.49;1620908;86;21474;-74
2022/11/17 02:28:30;;;;;;;3.62;2.50;;;;;;;0.54;83.85;99232.23;1604512;87;21221;-74
2022/11/17 02:31:24;;;;;;;3.95;2.45;;;;;;;0.51;83.72;99225.86;1608501;87;20917;-74
2022/11/17 02:34:21;;;;;;;5.28;2.70;;;;;;;0.50;83.78;99233.13;1600589;88;21878;-74
2022/11/17 02:37:11;;;;;;;2.83;2.27;;;;;;;0.48;83.72;99225.02;1608713;87;20929;-74
2022/11/17 02:39:55;;;;;;;2.75;2.27;;;;;;;0.48;83.80;99215.63;1607676;87;20976;-74
2022/11/17 02:45:23;;;;;;;5.28;2.22;;;;;;;0.46;83.67;99213.50;1659982;84;20919;-74
2022/11/17 02:47:53;;;;;;;3.30;2.50;;;;;;;0.44;83.60;99216.52;1677225;83;20954;-74
2022/11/17 02:50:25;;;;;;;3.17;2.37;;;;;;;0.43;83.65;99216.13;1678442;84;21500;-74
2022/11/17 02:52:52;;;;;;;4.10;2.25;;;;;;;0.45;83.64;99214.39;1676833;83;21499;-74
2022/11/17 02:55:19;;;;;;;3.25;2.47;;;;;;;0.44;83.56;99220.38;1698178;82;21056;-74
2022/11/17 02:57:45;;;;;;;3.07;2.23;;;;;;;0.43;83.61;99221.26;1698513;82;21412;-74
2022/11/17 03:00:17;;;;;;;2.53;2.03;;;;;;;0.43;83.46;99214.84;1691793;82;20929;-74
2022/11/17 03:03:21;;;;;;;4.78;2.85;;;;;;;0.42;83.30;99216.97;1660251;83;20996;-74
2022/11/17 03:06:04;;;;;;;3.92;2.90;;;;;;;0.38;83.45;99221.75;1695228;82;21541;-74
2022/11/17 03:08:48;;;;;;;3.95;2.33;;;;;;;0.39;83.48;99206.75;1686992;84;21148;-74
2022/11/17 03:11:15;;;;;;;3.60;2.27;;;;;;;0.40;83.44;99205.89;1692389;82;20896;-74
2022/11/17 03:14:04;;;;;;;2.42;2.22;;;;;;;0.38;83.34;99202.49;1717172;82;21455;-74
2022/11/17 03:17:03;;;;;;;3.20;2.30;;;;;;;0.36;83.29;99201.66;1668911;84;21499;-74
2022/11/17 03:19:43;;;;;;;4.60;2.55;;;;;;;0.37;83.39;99200.80;1675697;83;20914;-74
2022/11/17 03:22:33;;;;;;;4.17;2.12;;;;;;;0.37;83.41;99200.80;1684842;83;21057;-74
2022/11/17 03:25:04;;;;;;;3.10;2.15;;;;;;;0.36;83.19;99204.22;1622092;86;21596;-74
2022/11/17 03:27:42;;;;;;;3.83;2.20;;;;;;;0.33;83.22;99204.27;1626415;86;20939;-74
2022/11/17 03:30:11;;;;;;;2.85;2.20;;;;;;;0.33;83.25;99204.27;1600617;88;21072;-74
2022/11/17 03:32:42;;;;;;;4.08;2.40;;;;;;;0.31;83.17;99196.61;1595180;88;20974;-74
2022/11/17 03:35:16;;;;;;;3.02;2.20;;;;;;;0.32;83.14;99194.88;1610547;87;21042;-74
2022/11/17 03:37:48;;;;;;;2.45;2.25;;;;;;;0.30;83.06;99196.61;1613039;87;21631;-75
2022/11/17 03:40:19;;;;;;;6.35;2.08;;;;;;;0.29;83.04;99192.36;1612799;87;20942;-74
2022/11/17 03:42:52;;;;;;;4.70;2.45;;;;;;;0.27;82.93;99191.52;1613269;87;21067;-74
2022/11/17 03:45:32;;;;;;;3.08;2.37;;;;;;;0.27;83.11;99183.82;1613124;87;21013;-74
2022/11/17 03:48:25;;;;;;;6.87;2.40;;;;;;;0.28;83.18;99183.81;1612044;87;21065;-74
2022/11/17 03:51:15;;;;;;;2.00;1.90;;;;;;;0.30;83.14;99177.36;1607936;87;20948;-74
2022/11/17 03:53:42;;;;;;;2.83;1.98;;;;;;;0.30;83.14;99169.20;1612615;87;21506;-74
2022/11/17 03:56:34;;;;;;;2.98;2.15;;;;;;;0.32;83.15;99174.34;1603151;87;20994;-74
2022/11/17 03:59:06;;;;;;;2.95;2.08;;;;;;;0.34;82.99;99177.74;1602196;87;21002;-74
2022/11/17 04:01:34;;;;;;;2.60;2.40;;;;;;;0.31;83.06;99172.62;1608921;85;21163;-75
2022/11/17 04:04:01;;;;;;;5.80;2.90;;;;;;;0.32;83.11;99167.92;1672838;84;20949;-74
2022/11/17 04:06:28;;;;;;;3.47;2.77;;;;;;;0.32;83.06;99167.92;1667840;82;21510;-74
2022/11/17 04:08:55;;;;;;;2.13;1.90;;;;;;;0.33;83.04;99163.19;1702615;83;21547;-74
2022/11/17 04:16:51;;;;;;;3.37;2.35;;;;;;;0.33;83.08;99171.73;1699644;82;20945;-74
2022/11/17 04:19:17;;;;;;;3.22;2.05;;;;;;;0.32;83.06;99167.92;1705439;82;20973;-74
2022/11/17 04:21:44;;;;;;;3.87;2.20;;;;;;;0.30;83.09;99168.36;1707119;82;21506;-74
2022/11/17 04:24:11;;;;;;;2.60;2.02;;;;;;;0.31;83.09;99161.06;1699817;82;20891;-74
2022/11/17 04:29:22;;;;;;;3.87;2.70;;;;;;;0.31;83.04;99164.91;1646012;85;20957;-74
2022/11/17 04:31:49;;;;;;;2.10;1.80;;;;;;;0.30;83.08;99155.53;1646055;85;21124;-74
2022/11/17 04:34:15;;;;;;;3.75;2.42;;;;;;;0.31;83.15;99149.51;1679025;84;21529;-75
2022/11/17 04:36:42;;;;;;;4.33;3.07;;;;;;;0.35;83.16;99161.45;1673261;84;21044;-73
2022/11/17 04:39:11;;;;;;;4.62;2.70;;;;;;;0.37;83.13;99159.72;1678114;84;21795;-75
2022/11/17 04:41:53;;;;;;;2.62;2.00;;;;;;;0.41;83.20;99153.64;1679469;84;20886;-75
2022/11/17 04:44:29;;;;;;;4.42;2.02;;;;;;;0.43;83.18;99153.20;1675792;84;21496;-75
2022/11/17 04:46:56;;;;;;;2.45;1.77;;;;;;;0.44;83.18;99156.16;1669699;85;21488;-74
2022/11/17 04:49:23;;;;;;;;;;;;;;;;;;1668903;84;21074;-74
2022/11/17 04:51:51;;;;;;;2.30;2.10;;;;;;;0.42;83.10;99158.77;1673524;85;21159;-74
2022/11/17 04:54:22;;;;;;;1.72;1.27;;;;;;;0.39;83.19;99160.52;1677390;84;20940;-74
2022/11/17 04:56:50;;;;;;;2.12;1.70;;;;;;;0.44;83.31;99172.42;1661686;84;20963;-74
2022/11/17 04:59:16;;;;;;;;;;;;;;;0.49;83.17;99154.37;1677396;84;20954;-74
2022/11/17 05:01:44;;;;;;;3.23;2.33;;;;;;;0.49;83.07;99158.23;1669179;85;20118;-74
2022/11/17 05:04:13;;;;;;;3.72;2.58;;;;;;;0.44;83.06;99158.73;1678999;84;21084;-74
2022/11/17 05:06:43;;;;;;;1.90;1.70;;;;;;;0.43;83.10;99154.48;1654211;85;20954;-74
2022/11/17 05:09:14;;;;;;;2.05;1.75;;;;;;;0.43;83.13;99151.91;1706148;82;21001;-74
2022/11/17 05:14:28;;;;;;;2.22;1.57;;;;;;;0.46;83.12;99145.88;1674514;83;20941;-74
2022/11/17 05:17:04;;;;;;;1.57;1.45;;;;;;;0.44;83.06;99159.58;1698736;82;20977;-74
2022/11/17 05:19:34;;;;;;;1.50;1.40;;;;;;;0.44;82.84;99143.32;1709290;82;20889;-74
2022/11/17 05:22:01;;;;;;;2.00;1.40;;;;;;;0.37;82.73;99148.16;1700137;82;21762;-74
2022/11/17 05:24:28;;;;;;;2.22;1.85;;;;;;;0.34;82.75;99146.92;1708109;82;20918;-74
2022/11/17 05:26:55;;;;;;;2.30;1.85;;;;;;;0.32;82.78;99151.23;1708606;82;20934;-74
2022/11/17 05:29:22;;;;;;;3.85;1.80;;;;;;;0.30;82.84;99155.53;1708295;82;21490;-74
2022/11/17 05:31:49;;;;;;;;;;;;;;;0.30;82.73;99160.66;1710362;82;20993;-74
2022/11/17 05:34:17;;;;;;;2.30;2.10;;;;;;;0.26;82.69;99150.03;1708411;82;20078;-75
2022/11/17 05:36:44;;;;;;;1.90;1.70;;;;;;;0.25;82.84;99156.02;1678912;84;21693;-74
2022/11/17 05:39:10;;;;;;;3.58;2.40;;;;;;;0.27;82.87;99153.01;1683588;81;20930;-74
2022/11/17 05:41:37;;;;;;;3.50;1.87;;;;;;;0.27;82.77;99153.01;1683554;84;21091;-74
2022/11/17 05:44:04;;;;;;;2.17;1.97;;;;;;;0.25;82.79;99147.87;1684225;84;20946;-74
2022/11/17 05:46:31;;;;;;;2.67;2.05;;;;;;;0.24;82.81;99155.63;1684924;84;21589;-74
2022/11/17 05:48:58;;;;;;;2.57;2.00;;;;;;;0.23;82.81;99151.38;1684837;84;21009;-74
2022/11/17 05:51:24;;;;;;;2.47;2.22;;;;;;;0.24;82.82;99165.89;1688194;83;21072;-74
2022/11/17 05:53:51;;;;;;;2.30;2.10;;;;;;;0.26;82.78;99174.43;1649108;85;21080;-74
2022/11/17 05:56:42;;;;;;;2.55;1.95;;;;;;;0.26;82.77;99170.14;1696851;82;20957;-74
2022/11/17 05:59:20;;;;;;;3.08;2.27;;;;;;;0.25;82.67;99167.58;1694358;82;20985;-74
2022/11/17 06:01:54;;;;;;;3.00;2.27;;;;;;;0.25;82.64;99167.58;1683401;83;20933;-74
2022/11/17 06:04:22;;;;;;;2.72;2.20;;;;;;;0.23;82.61;99156.50;1685955;82;21128;-75
2022/11/17 06:06:49;;;;;;;3.58;2.37;;;;;;;0.21;82.73;99154.78;1696711;82;21485;-75
2022/11/17 06:09:16;;;;;;;2.65;2.20;;;;;;;0.25;82.72;99157.30;1705319;82;21017;-75
2022/11/17 06:11:43;;;;;;;2.90;2.55;;;;;;;0.26;82.72;99159.87;1706780;83;20997;-75
2022/11/17 06:14:09;;;;;;;5.53;2.83;;;;;;;0.28;82.70;99157.27;1705029;82;20974;-75
2022/11/17 06:16:40;;;;;;;8.75;5.80;;;;;;;0.23;82.52;99151.38;1700645;82;20945;-75
2022/11/17 06:19:12;;;;;;;4.50;3.50;;;;;;;0.12;82.46;99160.06;1676716;83;21301;-75
2022/11/17 06:21:38;;;;;;;10.85;6.78;;;;;;;0.06;82.48;99169.58;1686925;82;21546;-75
2022/11/17 06:24:07;;;;;;;7.70;6.07;;;;;;;0.00;82.51;99165.38;1689117;82;20957;-75
2022/11/17 06:26:34;;;;;;;9.00;4.78;;;;;;;-0.04;82.54;99166.27;1693458;82;20913;-75
2022/11/17 06:29:03;;;;;;;6.20;4.78;;;;;;;-0.08;82.50;99174.89;1694037;82;20894;-76
2022/11/17 06:31:31;;;;;;;9.88;4.12;;;;;;;-0.10;82.51;99177.91;1694857;82;21211;-75
2022/11/17 06:34:04;;;;;;;17.37;9.28;;;;;;;-0.10;82.58;99174.05;1706420;82;24732;-76
2022/11/17 06:36:31;;;;;;;21.12;9.80;;;;;;;-0.14;82.51;99172.38;1703966;82;20966;-75
2022/11/17 06:38:57;;;;;;;12.75;6.75;;;;;;;-0.17;82.49;99174.98;1707628;82;20951;-75
2022/11/17 06:41:24;;;;;;;9.35;6.15;;;;;;;-0.20;82.42;99171.17;1708564;82;21001;-75
2022/11/17 06:43:51;;;;;;;6.78;3.62;;;;;;;-0.24;82.48;99182.77;1705422;82;21052;-75
2022/11/17 06:46:18;;;;;;;7.92;4.20;;;;;;;-0.27;82.44;99167.41;1683291;83;20923;-75
2022/11/17 06:48:44;;;;;;;8.25;4.90;;;;;;;-0.28;82.42;99179.83;1683944;83;21780;-75
2022/11/17 06:51:11;;;;;;;8.88;5.62;;;;;;;-0.28;82.35;99168.29;1708117;82;21558;-75
2022/11/17 06:53:38;;;;;;;20.93;12.10;;;;;;;-0.31;82.44;99183.72;1686277;83;20961;-75
2022/11/17 06:58:33;;;;;;;10.85;5.92;;;;;;;-0.31;82.46;99186.29;1688851;83;20918;-76
2022/11/17 07:01:09;;;;;;;4.97;4.40;;;;;;;-0.30;82.49;99187.97;1678217;83;21029;-76
2022/11/17 07:03:38;;;;;;;6.90;3.42;;;;;;;-0.32;82.33;99179.44;1684745;83;20950;-76
2022/11/17 07:06:08;;;;;;;7.58;4.60;;;;;;;-0.34;82.43;99181.16;1680277;83;21047;-75
2022/11/17 07:08:36;;;;;;;6.87;4.58;;;;;;;-0.34;82.48;99178.60;1684548;83;21825;-75
2022/11/17 07:11:12;;;;;;;15.50;4.97;;;;;;;-0.31;82.53;99165.77;1682848;83;20994;-76
2022/11/17 07:13:39;;;;;;;8.55;4.83;;;;;;;-0.31;82.52;99170.89;1690841;84;20996;-75
2022/11/17 07:16:12;;;;;;;16.57;10.88;;;;;;;-0.28;82.52;99168.29;1683131;83;20979;-76
2022/11/17 07:18:42;;;;;;;8.30;3.60;;;;;;;-0.26;82.55;99169.09;1686977;83;20933;-75
2022/11/17 07:21:12;;;;;;;4.90;3.77;;;;;;;-0.26;82.47;99171.66;1688642;83;22013;-75
2022/11/17 07:23:41;;;;;;;7.28;3.45;;;;;;;-0.26;82.53;99166.53;1683563;83;21036;-76
2022/11/17 07:26:08;;;;;;;4.35;3.55;;;;;;;-0.27;82.50;99169.98;1686703;83;21511;-76
2022/11/17 07:28:35;;;;;;;7.67;4.10;;;;;;;-0.25;82.60;99168.25;1696259;83;20933;-76
2022/11/17 07:31:07;;;;;;;4.85;3.98;;;;;;;-0.23;82.60;99163.92;1647074;85;21295;-76
2022/11/17 07:33:34;;;;;;;7.60;3.80;;;;;;;-0.20;82.62;99159.63;1710383;82;21039;-76
2022/11/17 07:36:04;;;;;;;10.85;5.62;;;;;;;-0.23;82.54;99170.34;1705489;82;21602;-76
2022/11/17 07:38:33;;;;;;;7.03;3.77;;;;;;;-0.21;82.58;99179.75;1701705;82;20970;-77
2022/11/17 07:40:59;;;;;;;4.58;3.22;;;;;;;-0.20;82.56;99178.87;1706558;82;21443;-75
2022/11/17 07:43:28;;;;;;;4.97;3.40;;;;;;;-0.23;82.47;99174.19;1712604;82;21438;-75
2022/11/17 07:45:55;;;;;;;3.25;2.95;;;;;;;-0.25;82.41;99182.36;1693473;82;21049;-76
2022/11/17 07:48:22;;;;;;;5.65;4.05;;;;;;;-0.27;82.47;99172.98;1712194;81;20941;-76
2022/11/17 07:50:49;;;;;;;5.20;3.25;;;;;;;-0.27;82.48;99173.83;1706496;82;20902;-76
2022/11/17 07:53:15;;;;;;;3.30;3.00;;;;;;;-0.25;82.61;99174.66;1707923;82;20944;-75
2022/11/17 07:55:42;;;;;;;4.72;2.98;;;;;;;-0.25;82.49;99175.95;1698724;83;20946;-76
2022/11/17 07:58:09;;;;;;;3.67;3.00;;;;;;;-0.27;82.39;99177.67;1669672;83;21105;-75
2022/11/17 08:00:36;;;;;;;3.80;3.10;;;;;;;-0.28;82.38;99170.86;1701405;83;20886;-75
2022/11/17 08:03:04;;;;;;;9.63;5.87;;;;;;;-0.28;82.35;99173.42;1649750;86;20915;-75
2022/11/17 08:05:34;;;;;;;5.87;3.30;;;;;;;-0.26;82.50;99174.23;1677429;83;20930;-75
2022/11/17 08:08:00;;;;;;;3.77;3.00;;;;;;;-0.27;82.31;99178.95;1679668;84;21052;-76
2022/11/17 08:10:31;;;;;;;3.40;2.80;;;;;;;-0.28;82.27;99181.12;1686504;83;21046;-76
2022/11/17 08:12:59;;;;;;;3.25;2.95;;;;;;;-0.26;82.32;99174.23;1688606;83;20950;-76
2022/11/17 08:15:30;;;;;;;9.70;3.83;;;;;;;-0.23;82.23;99161.36;1685431;83;20970;-75
2022/11/17 08:17:58;;;;;;;4.50;3.67;;;;;;;-0.21;82.31;99160.52;1696351;84;20886;-75
2022/11/17 08:20:28;;;;;;;4.17;3.77;;;;;;;-0.18;82.24;99161.75;1689657;83;21049;-75
2022/11/17 08:22:55;;;;;;;10.03;3.50;;;;;;;-0.16;82.34;99164.72;1651931;85;21889;-76
2022/11/17 08:25:24;;;;;;;4.83;3.60;;;;;;;-0.14;82.17;99160.83;1695166;83;20891;-75
2022/11/17 08:27:54;;;;;;;4.47;3.50;;;;;;;-0.14;82.14;99162.11;1696087;83;21441;-75
2022/11/17 08:30:21;;;;;;;7.65;3.85;;;;;;;-0.13;82.10;99166.39;1695142;83;20907;-75
2022/11/17 08:32:51;;;;;;;6.25;4.03;;;;;;;-0.11;82.26;99164.63;1696076;83;20914;-75
2022/11/17 08:35:20;;;;;;;7.53;3.92;;;;;;;-0.06;82.26;99168.84;1711132;83;20919;-75
2022/11/17 08:37:47;;;;;;;7.12;4.30;;;;;;;-0.01;82.01;99168.79;1706596;83;20890;-75
2022/11/17 08:40:16;;;;;;;4.45;3.70;;;;;;;0.03;82.21;99167.89;1699679;83;20931;-75
2022/11/17 08:42:43;;;;;;;9.23;4.50;;;;;;;0.08;82.25;99175.08;1695938;83;20918;-75
2022/11/17 08:45:11;;;;;;;5.08;3.90;;;;;;;0.16;82.36;99189.09;1696088;83;21554;-76
2022/11/17 08:47:38;;;;;;;5.47;4.33;;;;;;;0.20;82.09;99178.78;1695994;83;21113;-75
2022/11/17 08:50:06;;;;;;;9.90;4.92;;;;;;;0.19;82.10;99174.49;1695713;83;25801;-75
2022/11/17 08:52:33;;;;;;;12.30;5.55;;;;;;;0.20;82.19;99168.50;1689345;83;20887;-75
2022/11/17 08:55:00;;;;;;;5.03;3.67;;;;;;;0.26;82.08;99174.43;1698493;83;20934;-76
2022/11/17 08:57:30;;;;;;;7.28;4.85;;;;;;;0.30;82.07;99183.77;1691572;83;20942;-75
2022/11/17 08:59:57;;;;;;;9.10;5.60;;;;;;;0.30;82.21;99177.36;1689473;83;21095;-75
2022/11/17 09:02:25;;;;;;;6.40;4.33;;;;;;;0.30;82.13;99178.64;1689923;83;20937;-76
2022/11/17 09:04:51;;;;;;;10.80;4.85;;;;;;;0.38;82.07;99171.67;1658892;84;21503;-75
2022/11/17 09:07:18;;;;;;;7.22;3.10;;;;;;;0.44;81.71;99174.98;1685579;83;20954;-75
2022/11/17 09:09:47;;;;;;;4.97;3.10;;;;;;;0.44;81.51;99163.87;1690701;83;20953;-75
2022/11/17 09:12:15;;;;;;;6.17;3.60;;;;;;;0.42;81.53;99166.89;1656047;84;21112;-75
2022/11/17 09:14:41;;;;;;;5.50;3.85;;;;;;;0.44;81.63;99171.58;1690557;83;20985;-75
2022/11/17 09:17:08;;;;;;;5.90;3.50;;;;;;;0.48;81.51;99162.97;1656144;84;21516;-75
2022/11/17 09:19:35;;;;;;;7.45;3.50;;;;;;;0.50;81.47;99166.78;1689801;83;20958;-75
2022/11/17 09:22:02;;;;;;;12.13;4.40;;;;;;;0.57;81.56;99162.81;1685083;83;21033;-75
2022/11/17 09:24:28;;;;;;;4.78;3.35;;;;;;;0.65;81.43;99160.98;1688281;83;21727;-75
2022/11/17 09:26:56;;;;;;;3.13;2.83;;;;;;;0.75;81.70;99160.81;1654848;84;20891;-75
2022/11/17 09:29:22;;;;;;;;;;;;;;;0.82;81.42;99162.42;1689866;83;21530;-75
2022/11/17 09:31:49;;;;;;;6.90;3.80;;;;;;;0.89;81.31;99158.86;1685369;83;20118;-75
2022/11/17 09:34:16;;;;;;;6.12;3.37;;;;;;;0.87;81.13;99159.34;1687303;83;21426;-75
2022/11/17 09:36:43;;;;;;;7.37;4.05;;;;;;;0.90;80.37;99152.87;1692904;83;21702;-75
2022/11/17 09:39:10;;;;;;;5.53;3.30;;;;;;;0.85;80.75;99154.22;1688311;83;20883;-75
2022/11/17 09:41:45;;;;;;;4.28;3.10;;;;;;;0.89;80.94;99155.01;1689128;83;20945;-74
2022/11/17 09:44:33;;;;;;;7.08;3.72;;;;;;;0.86;80.39;99158.92;1686650;83;20942;-74
2022/11/17 09:47:34;;;;;;;5.05;3.08;;;;;;;0.82;80.31;99149.58;1692435;83;20945;-74
2022/11/17 09:50:21;;;;;;;4.80;3.67;;;;;;;0.83;80.18;99152.55;1691571;83;21937;-77
2022/11/17 09:52:58;;;;;;;4.65;3.60;;;;;;;0.89;80.64;99146.01;1694958;83;21920;-77
2022/11/17 09:55:33;;;;;;;4.80;3.35;;;;;;;1.01;80.44;99153.53;1695598;83;20907;-76
2022/11/17 09:58:17;;;;;;;5.90;4.50;;;;;;;1.07;80.13;99141.84;1686374;83;20948;-75
2022/11/17 10:00:52;;;;;;;6.35;3.50;;;;;;;1.25;80.33;99138.52;1714736;82;20997;-74
2022/11/17 10:03:22;;;;;;;3.98;3.02;;;;;;;1.30;79.62;99131.56;1700865;82;21212;-75
2022/11/17 10:05:50;;;;;;;7.05;3.60;;;;;;;1.36;78.97;99128.88;1689012;83;20897;-75
2022/11/17 10:08:28;;;;;;;4.60;3.83;;;;;;;1.35;79.23;99133.63;1710858;81;21403;-75
2022/11/17 10:10:55;;;;;;;6.37;3.55;;;;;;;1.34;78.95;99132.78;1706486;82;20897;-76
2022/11/17 10:13:35;;;;;;;8.80;4.77;;;;;;;1.32;78.46;99125.52;1713494;82;20946;-75
2022/11/17 10:16:08;;;;;;;4.60;3.75;;;;;;;1.28;78.36;99124.31;1708110;82;21053;-75
2022/11/17 10:18:37;;;;;;;5.55;3.90;;;;;;;1.15;77.60;99126.70;1711217;81;20921;-75
2022/11/17 10:21:05;;;;;;;7.67;4.33;;;;;;;0.99;78.25;99132.13;1687920;82;21482;-76
2022/11/17 10:23:46;;;;;;;6.20;3.87;;;;;;;0.98;78.71;99133.02;1707429;82;20917;-75
2022/11/17 10:26:14;;;;;;;7.00;4.47;;;;;;;0.96;78.26;99130.91;1689279;83;20926;-76
2022/11/17 10:28:41;;;;;;;7.25;5.12;;;;;;;0.90;78.54;99131.02;1708527;82;21025;-76
2022/11/17 10:31:17;;;;;;;8.75;4.97;;;;;;;0.90;78.44;99116.88;1708422;82;20977;-75
2022/11/17 10:33:50;;;;;;;12.40;4.85;;;;;;;0.92;78.33;99121.53;1679407;83;21609;-75
2022/11/17 10:36:29;;;;;;;12.10;4.83;;;;;;;0.92;78.50;99112.54;1704349;82;20962;-75
2022/11/17 10:38:58;;;;;;;5.92;4.25;;;;;;;0.91;78.50;99118.56;1695928;82;20973;-75
2022/11/17 10:41:35;;;;;;;11.28;4.92;;;;;;;0.85;78.05;99116.11;1708683;82;21086;-75
2022/11/17 10:44:27;;;;;;;5.92;3.98;;;;;;;0.72;77.85;99109.48;1707758;82;20894;-75
2022/11/17 10:47:02;;;;;;;9.63;5.33;;;;;;;0.56;77.60;99109.75;1674838;83;20922;-75
2022/11/17 10:49:40;;;;;;;6.83;4.85;;;;;;;0.54;78.43;99108.92;1685624;83;21530;-75
2022/11/17 10:52:17;;;;;;;4.87;3.95;;;;;;;0.60;78.45;99116.52;1690035;83;20977;-75
2022/11/17 10:54:44;;;;;;;4.97;3.90;;;;;;;0.65;77.94;99108.75;1699374;83;21820;-75
2022/11/17 10:57:21;;;;;;;4.97;3.65;;;;;;;0.72;77.87;99109.48;1675935;83;20918;-75
2022/11/17 10:59:58;;;;;;;4.78;4.33;;;;;;;0.74;77.91;99106.02;1669551;84;21128;-74
2022/11/17 11:02:35;;;;;;;6.80;5.12;;;;;;;0.77;77.80;99105.11;1700187;83;21079;-75
2022/11/17 11:05:12;;;;;;;6.62;4.40;;;;;;;0.81;77.94;99091.32;1694302;82;20993;-75
2022/11/17 11:07:39;;;;;;;5.70;3.80;;;;;;;0.84;77.53;99093.42;1697739;82;20974;-75
2022/11/17 11:10:29;;;;;;;6.90;3.40;;;;;;;0.84;77.35;99094.70;1691418;83;28243;-75
2022/11/17 11:13:15;;;;;;;6.08;3.70;;;;;;;0.87;77.25;99093.81;1701349;83;20942;-75
2022/11/17 11:15:44;;;;;;;5.78;4.75;;;;;;;0.87;76.82;99093.81;1701299;83;20962;-75
2022/11/17 11:18:16;;;;;;;;;;;;;;;0.87;76.93;99088.67;1703503;83;20918;-75
2022/11/17 11:21:25;;;;;;;5.37;4.87;;;;;;;0.88;76.37;99091.19;1689829;83;21093;-75
2022/11/17 11:24:06;;;;;;;6.80;5.28;;;;;;;0.91;76.97;99085.16;1695464;83;20918;-75
2022/11/17 11:26:50;;;;;;;5.25;4.35;;;;;;;1.02;77.37;99083.23;1691216;83;20926;-75
2022/11/17 11:29:46;;;;;;;6.83;4.55;;;;;;;1.09;76.93;99084.82;1687429;83;20933;-75
2022/11/17 11:32:32;;;;;;;5.55;3.98;;;;;;;1.09;76.78;99077.11;1698483;83;20887;-75
2022/11/17 11:35:30;;;;;;;10.13;4.62;;;;;;;1.09;76.19;99079.68;1671020;84;21062;-75
2022/11/17 11:38:17;;;;;;;10.43;5.00;;;;;;;1.08;76.46;99072.83;1622420;86;20973;-75
2022/11/17 11:41:05;;;;;;;8.73;6.03;;;;;;;1.16;76.86;99076.98;1633858;86;20997;-75
2022/11/17 11:44:01;;;;;;;6.87;5.45;;;;;;;1.21;75.93;99067.46;1642140;86;20894;-75
2022/11/17 11:47:13;;;;;;;9.28;5.72;;;;;;;1.21;76.11;99063.60;1638766;86;20977;-75
2022/11/17 11:49:48;;;;;;;9.68;5.78;;;;;;;1.22;76.33;99060.14;1635763;86;21094;-75
2022/11/17 11:52:20;;;;;;;11.65;5.70;;;;;;;1.32;76.74;99051.38;1642306;86;20948;-75
2022/11/17 11:55:07;;;;;;;6.25;4.95;;;;;;;1.35;76.58;99046.16;1641600;86;21032;-75
2022/11/17 11:57:40;;;;;;;9.88;5.75;;;;;;;1.35;75.58;99044.88;1643275;86;21989;-75
2022/11/17 12:00:16;;;;;;;10.98;6.25;;;;;;;1.28;75.09;99048.44;1642097;86;21504;-76
2022/11/17 12:02:48;;;;;;;8.00;4.28;;;;;;;1.26;75.09;99042.47;1645015;85;21263;-75
2022/11/17 12:05:20;;;;;;;10.58;5.78;;;;;;;1.22;74.84;99042.14;1643788;86;21532;-76
2022/11/17 12:08:03;;;;;;;10.72;6.65;;;;;;;1.19;75.45;99058.92;1643740;85;20937;-76
2022/11/17 12:10:46;;;;;;;9.20;5.12;;;;;;;1.18;75.27;99048.23;1642968;86;20986;-76
2022/11/17 12:13:16;;;;;;;7.22;5.85;;;;;;;1.15;75.14;99043.13;1643951;83;21001;-75
2022/11/17 12:15:45;;;;;;;9.28;5.22;;;;;;;1.15;75.35;99048.27;1685884;84;21407;-75
2022/11/17 12:18:20;;;;;;;10.38;5.67;;;;;;;1.13;75.25;99052.62;1695750;84;20886;-75
2022/11/17 12:20:54;;;;;;;8.35;5.72;;;;;;;1.15;75.33;99055.57;1701752;83;20954;-75
2022/11/17 12:23:55;;;;;;;8.93;5.65;;;;;;;1.17;75.35;99049.94;1697671;83;20993;-75
2022/11/17 12:26:28;;;;;;;9.35;6.03;;;;;;;1.19;75.28;99046.06;1697341;83;21538;-76
2022/11/17 12:29:24;;;;;;;11.30;6.53;;;;;;;1.19;75.41;99048.63;1691960;83;21483;-75
2022/11/17 12:31:54;;;;;;;10.20;6.58;;;;;;;1.21;75.69;99045.16;1692981;83;20918;-75
2022/11/17 12:34:35;;;;;;;8.25;6.05;;;;;;;1.25;75.55;99044.64;1702303;83;20894;-75